createdAt,value
2022-11-03T00:01:46.316Z,5.80
2022-11-03T00:04:15.563Z,5.27
2022-11-03T00:06:43.411Z,5.80
2022-11-03T00:09:12.327Z,5.60
2022-11-03T00:11:39.972Z,6.25
2022-11-03T00:14:09.199Z,5.82
2022-11-03T00:16:36.730Z,5.13
2022-11-03T00:19:04.134Z,5.35
2022-11-03T00:21:31.308Z,5.83
2022-11-03T00:23:58.394Z,5.60
2022-11-03T00:26:27.451Z,5.97
2022-11-03T00:28:55.648Z,5.22
2022-11-03T00:31:25.024Z,5.13
2022-11-03T00:33:52.456Z,4.72
2022-11-03T00:36:21.178Z,4.80
2022-11-03T00:38:48.287Z,4.47
2022-11-03T00:41:15.294Z,4.90
2022-11-03T00:43:42.810Z,4.70
2022-11-03T00:46:10.274Z,5.30
2022-11-03T00:48:38.094Z,4.97
2022-11-03T00:51:26.868Z,5.30
2022-11-03T00:53:55.483Z,5.03
2022-11-03T00:56:24.011Z,4.60
2022-11-03T00:58:51.562Z,4.60
2022-11-03T01:01:19.704Z,4.50
2022-11-03T01:04:07.809Z,4.45
2022-11-03T01:06:51.469Z,4.35
2022-11-03T01:09:19.971Z,3.88
2022-11-03T01:12:03.774Z,3.97
2022-11-03T01:14:33.246Z,3.67
2022-11-03T01:17:00.511Z,3.80
2022-11-03T01:19:28.029Z,4.30
2022-11-03T01:21:55.163Z,4.60
2022-11-03T01:24:22.324Z,4.13
2022-11-03T01:27:29.187Z,3.97
2022-11-03T01:29:56.511Z,4.55
2022-11-03T01:32:23.599Z,4.85
2022-11-03T01:34:50.680Z,4.82
2022-11-03T01:37:17.795Z,4.45
2022-11-03T01:39:44.851Z,3.97
2022-11-03T01:42:14.404Z,3.90
2022-11-03T01:44:44.136Z,4.53
2022-11-03T01:47:17.475Z,4.97
2022-11-03T01:49:44.540Z,4.80
2022-11-03T01:52:17.429Z,3.72
2022-11-03T01:54:48.328Z,4.07
2022-11-03T01:57:21.098Z,3.70
2022-11-03T01:59:49.034Z,4.43
2022-11-03T02:02:16.521Z,4.57
2022-11-03T02:04:43.959Z,4.28
2022-11-03T02:07:18.047Z,4.50
2022-11-03T02:09:45.078Z,4.03
2022-11-03T02:12:12.742Z,4.20
2022-11-03T02:14:43.620Z,4.40
2022-11-03T02:17:12.498Z,4.28
2022-11-03T02:19:59.534Z,4.10
2022-11-03T02:22:47.136Z,4.03
2022-11-03T02:25:34.202Z,4.07
2022-11-03T02:28:01.710Z,3.60
2022-11-03T02:30:31.091Z,3.50
2022-11-03T02:32:59.561Z,4.32
2022-11-03T02:35:31.938Z,3.83
2022-11-03T02:38:01.009Z,3.88
2022-11-03T02:40:31.587Z,3.75
2022-11-03T02:42:59.715Z,4.00
2022-11-03T02:45:27.589Z,4.00
2022-11-03T02:47:56.165Z,4.45
2022-11-03T02:50:26.837Z,4.30
2022-11-03T02:52:53.876Z,4.03
2022-11-03T02:55:38.709Z,3.95
2022-11-03T02:58:05.761Z,4.38
2022-11-03T03:00:36.713Z,4.00
2022-11-03T03:03:06.225Z,3.63
2022-11-03T03:05:34.837Z,3.50
2022-11-03T03:08:04.378Z,3.85
2022-11-03T03:10:34.036Z,3.60
2022-11-03T03:13:02.385Z,3.90
2022-11-03T03:15:44.951Z,3.88
2022-11-03T03:18:31.558Z,4.25
2022-11-03T03:21:02.397Z,3.70
2022-11-03T03:23:32.692Z,3.90
2022-11-03T03:26:03.811Z,4.28
2022-11-03T03:28:33.893Z,3.60
2022-11-03T03:31:02.218Z,3.67
2022-11-03T03:33:30.614Z,3.55
2022-11-03T03:35:58.201Z,4.00
2022-11-03T03:38:30.349Z,3.72
2022-11-03T03:40:58.414Z,3.72
2022-11-03T03:43:26.769Z,4.03
2022-11-03T03:45:56.070Z,4.03
2022-11-03T03:48:23.262Z,4.13
2022-11-03T03:50:50.867Z,3.63
2022-11-03T03:53:19.350Z,4.07
2022-11-03T03:55:50.749Z,4.03
2022-11-03T03:58:18.249Z,3.73
2022-11-03T04:00:45.331Z,3.90
2022-11-03T04:03:17.413Z,4.03
2022-11-03T04:05:45.023Z,4.40
2022-11-03T04:08:12.713Z,4.70
2022-11-03T04:10:39.785Z,4.90
2022-11-03T04:13:27.221Z,5.47
2022-11-03T04:15:55.245Z,5.03
2022-11-03T04:18:42.581Z,5.22
2022-11-03T04:21:32.231Z,4.53
2022-11-03T04:24:00.448Z,4.35
2022-11-03T04:26:27.985Z,4.57
2022-11-03T04:28:55.072Z,5.80
2022-11-03T04:31:22.311Z,4.60
2022-11-03T04:33:49.756Z,4.85
2022-11-03T04:36:24.544Z,4.00
2022-11-03T04:38:52.418Z,3.90
2022-11-03T04:41:24.689Z,4.50
2022-11-03T04:43:52.534Z,4.45
2022-11-03T04:46:27.680Z,4.55
2022-11-03T04:48:55.645Z,4.20
2022-11-03T04:51:25.668Z,4.03
2022-11-03T04:53:55.456Z,3.63
2022-11-03T04:56:24.187Z,4.63
2022-11-03T04:58:51.246Z,5.05
2022-11-03T05:01:23.756Z,4.80
2022-11-03T05:03:52.063Z,4.60
2022-11-03T05:06:20.685Z,4.33
2022-11-03T05:08:50.267Z,4.05
2022-11-03T05:11:21.490Z,5.00
2022-11-03T05:13:49.319Z,4.85
2022-11-03T05:16:17.144Z,4.07
2022-11-03T05:18:45.267Z,5.28
2022-11-03T05:21:14.135Z,5.07
2022-11-03T05:23:44.370Z,5.70
2022-11-03T05:26:20.767Z,5.53
2022-11-03T05:28:50.903Z,4.97
2022-11-03T05:31:26.843Z,4.63
2022-11-03T05:33:54.535Z,4.15
2022-11-03T05:36:23.039Z,4.05
2022-11-03T05:38:50.688Z,4.35
2022-11-03T05:41:33.278Z,4.40
2022-11-03T05:44:02.875Z,4.68
2022-11-03T05:46:31.366Z,4.63
2022-11-03T05:49:01.455Z,4.90
2022-11-03T05:51:30.314Z,4.20
2022-11-03T05:53:58.662Z,4.40
2022-11-03T05:56:26.405Z,4.57
2022-11-03T05:58:55.362Z,4.72
2022-11-03T06:01:27.382Z,4.38
2022-11-03T06:03:54.541Z,4.15
2022-11-03T06:06:28.031Z,4.38
2022-11-03T06:08:58.634Z,4.05
2022-11-03T06:11:28.424Z,4.32
2022-11-03T06:13:56.779Z,4.10
2022-11-03T06:16:43.741Z,4.30
2022-11-03T06:19:31.266Z,4.60
2022-11-03T06:21:59.638Z,3.80
2022-11-03T06:24:30.746Z,4.30
2022-11-03T06:26:58.489Z,4.43
2022-11-03T06:29:25.731Z,4.07
2022-11-03T06:31:54.754Z,4.55
2022-11-03T06:34:31.826Z,4.95
2022-11-03T06:36:59.692Z,4.93
2022-11-03T06:39:26.795Z,5.40
2022-11-03T06:41:54.014Z,6.10
2022-11-03T06:44:24.562Z,5.80
2022-11-03T06:46:52.086Z,6.07
2022-11-03T06:49:26.546Z,5.53
2022-11-03T06:51:53.626Z,5.45
2022-11-03T06:54:20.680Z,5.28
2022-11-03T06:56:47.876Z,5.10
2022-11-03T06:59:16.673Z,4.90
2022-11-03T07:01:43.954Z,5.18
2022-11-03T07:04:17.015Z,5.50
2022-11-03T07:06:46.787Z,5.80
2022-11-03T07:09:21.877Z,7.00
2022-11-03T07:11:52.058Z,7.28
2022-11-03T07:14:22.042Z,7.97
2022-11-03T07:16:53.094Z,8.90
2022-11-03T07:19:22.580Z,8.90
2022-11-03T07:21:50.957Z,6.80
2022-11-03T07:24:37.934Z,7.55
2022-11-03T07:27:24.893Z,8.10
2022-11-03T07:29:53.370Z,9.00
2022-11-03T07:32:21.225Z,9.65
2022-11-03T07:34:48.785Z,9.05
2022-11-03T07:37:19.065Z,8.40
2022-11-03T07:39:46.294Z,8.57
2022-11-03T07:42:16.117Z,11.63
2022-11-03T07:44:43.149Z,15.48
2022-11-03T07:47:20.394Z,16.20
2022-11-03T07:49:47.685Z,13.63
2022-11-03T07:52:17.479Z,13.48
2022-11-03T07:54:44.525Z,13.00
2022-11-03T07:57:14.782Z,12.00
2022-11-03T07:59:43.125Z,11.48
2022-11-03T08:02:25.699Z,10.50
2022-11-03T08:04:52.503Z,9.18
2022-11-03T08:07:19.551Z,9.30
2022-11-03T08:09:46.638Z,8.38
2022-11-03T08:12:13.666Z,8.57
2022-11-03T08:14:40.692Z,7.95
2022-11-03T08:17:07.781Z,8.13
2022-11-03T08:19:34.905Z,8.10
2022-11-03T08:22:02.033Z,7.90
2022-11-03T08:24:29.075Z,7.25
2022-11-03T08:26:56.326Z,7.47
2022-11-03T08:29:26.958Z,7.40
2022-11-03T08:31:54.392Z,7.25
2022-11-03T08:34:21.482Z,7.60
2022-11-03T08:36:48.567Z,7.30
2022-11-03T08:39:15.612Z,7.45
2022-11-03T08:41:42.629Z,8.05
2022-11-03T08:44:09.871Z,8.10
2022-11-03T08:46:36.994Z,7.63
2022-11-03T08:49:04.228Z,6.85
2022-11-03T08:51:31.263Z,6.72
2022-11-03T08:53:58.349Z,6.28
2022-11-03T08:56:25.365Z,6.40
2022-11-03T08:58:52.461Z,6.18
2022-11-03T09:01:19.609Z,6.10
2022-11-03T09:03:46.940Z,6.05
2022-11-03T09:06:14.001Z,6.13
2022-11-03T09:11:28.129Z,5.38
2022-11-03T09:13:55.277Z,5.00
2022-11-03T09:16:22.348Z,4.17
2022-11-03T09:18:49.417Z,4.22
2022-11-03T09:21:16.748Z,4.35
2022-11-03T09:23:43.795Z,4.43
2022-11-03T09:26:10.852Z,3.80
2022-11-03T09:28:37.975Z,3.60
2022-11-03T09:31:05.030Z,3.88
2022-11-03T09:33:32.343Z,5.33
2022-11-03T09:35:59.423Z,3.50
2022-11-03T09:38:26.498Z,3.35
2022-11-03T09:40:53.318Z,3.17
2022-11-03T09:43:20.326Z,3.00
2022-11-03T09:45:47.405Z,3.28
2022-11-03T09:48:14.581Z,3.55
2022-11-03T09:50:41.719Z,2.77
2022-11-03T09:53:11.026Z,2.92
2022-11-03T09:55:38.158Z,3.10
2022-11-03T09:58:12.091Z,3.30
2022-11-03T10:00:39.308Z,3.58
2022-11-03T10:03:06.738Z,3.35
2022-11-03T10:05:34.216Z,3.70
2022-11-03T10:08:04.103Z,3.60
2022-11-03T10:10:31.716Z,3.75
2022-11-03T10:12:59.841Z,3.50
2022-11-03T10:15:27.378Z,3.28
2022-11-03T10:17:55.332Z,3.88
2022-11-03T10:20:23.233Z,3.60
2022-11-03T10:22:52.857Z,3.63
2022-11-03T10:25:40.432Z,3.37
2022-11-03T10:28:27.418Z,3.50
2022-11-03T10:31:11.961Z,3.60
2022-11-03T10:33:41.677Z,3.30
2022-11-03T10:36:16.232Z,3.38
2022-11-03T10:38:44.365Z,2.97
2022-11-03T10:41:12.443Z,3.40
2022-11-03T10:43:40.317Z,3.25
2022-11-03T10:46:29.441Z,3.28
2022-11-03T10:49:02.818Z,3.45
2022-11-03T10:51:30.013Z,3.47
2022-11-03T10:53:57.741Z,3.60
2022-11-03T10:56:24.889Z,3.72
2022-11-03T10:58:52.427Z,3.50
2022-11-03T11:01:19.627Z,3.10
2022-11-03T11:03:46.935Z,3.20
2022-11-03T11:06:23.689Z,2.80
2022-11-03T11:08:59.620Z,3.20
2022-11-03T11:11:27.416Z,3.20
2022-11-03T11:14:17.173Z,3.35
2022-11-03T11:16:48.541Z,3.70
2022-11-03T11:19:15.836Z,3.70
2022-11-03T11:21:42.901Z,3.93
2022-11-03T11:24:10.668Z,4.05
2022-11-03T11:26:38.889Z,3.58
2022-11-03T11:29:09.278Z,3.80
2022-11-03T11:31:37.996Z,3.43
2022-11-03T11:34:26.049Z,3.80
2022-11-03T11:36:54.112Z,3.50
2022-11-03T11:39:21.189Z,3.80
2022-11-03T11:42:08.378Z,3.72
2022-11-03T11:44:53.885Z,4.00
2022-11-03T11:47:21.932Z,4.10
2022-11-03T11:49:49.102Z,4.30
2022-11-03T11:52:19.139Z,3.97
2022-11-03T11:54:46.505Z,4.07
2022-11-03T11:57:19.717Z,4.38
2022-11-03T11:59:47.662Z,4.32
2022-11-03T12:02:31.136Z,4.03
2022-11-03T12:05:03.810Z,4.40
2022-11-03T12:07:33.508Z,4.70
2022-11-03T12:10:09.264Z,4.70
2022-11-03T12:12:36.625Z,4.72
2022-11-03T12:15:03.688Z,4.82
2022-11-03T12:17:30.720Z,5.10
2022-11-03T12:19:57.789Z,5.05
2022-11-03T12:22:24.856Z,4.80
2022-11-03T12:24:59.905Z,6.00
2022-11-03T12:27:27.038Z,5.75
2022-11-03T12:29:54.999Z,5.83
2022-11-03T12:32:34.085Z,5.95
2022-11-03T12:35:02.472Z,6.43
2022-11-03T12:37:29.551Z,7.03
2022-11-03T12:39:56.636Z,6.45
2022-11-03T12:42:25.154Z,6.50
2022-11-03T12:44:52.749Z,7.10
2022-11-03T12:47:20.729Z,7.18
2022-11-03T12:49:47.861Z,7.50
2022-11-03T12:52:15.232Z,7.47
2022-11-03T12:54:42.359Z,7.47
2022-11-03T12:57:09.577Z,7.05
2022-11-03T12:59:36.776Z,7.32
2022-11-03T13:02:04.101Z,7.05
2022-11-03T13:04:31.321Z,8.17
2022-11-03T13:06:58.398Z,7.80
2022-11-03T13:09:25.981Z,8.63
2022-11-03T13:12:12.964Z,8.50
2022-11-03T13:14:44.446Z,8.85
2022-11-03T13:17:13.250Z,9.52
2022-11-03T13:19:40.287Z,9.30
2022-11-03T13:22:07.333Z,9.27
2022-11-03T13:24:34.431Z,9.27
2022-11-03T13:27:01.512Z,9.48
2022-11-03T13:29:34.024Z,9.38
2022-11-03T13:32:03.468Z,10.48
2022-11-03T13:34:30.519Z,9.52
2022-11-03T13:36:58.622Z,9.90
2022-11-03T13:39:25.655Z,10.07
2022-11-03T13:41:52.740Z,10.52
2022-11-03T13:44:19.794Z,10.77
2022-11-03T13:46:46.884Z,10.52
2022-11-03T13:50:07.758Z,11.45
2022-11-03T13:52:00.990Z,10.88
2022-11-03T14:00:05.346Z,10.77
2022-11-03T14:05:19.722Z,10.47
2022-11-03T14:07:46.747Z,9.70
2022-11-03T14:10:13.838Z,10.80
2022-11-03T14:12:41.099Z,10.20
2022-11-03T14:15:10.893Z,10.13
2022-11-03T14:17:38.635Z,9.65
2022-11-03T14:20:06.787Z,9.98
2022-11-03T14:22:33.937Z,9.95
2022-11-03T14:25:01.284Z,9.63
2022-11-03T14:27:28.552Z,9.90
2022-11-03T14:29:56.095Z,9.55
2022-11-03T14:32:23.202Z,9.40
2022-11-03T14:34:50.378Z,9.48
2022-11-03T14:37:17.586Z,9.45
2022-11-03T14:39:44.695Z,10.05
2022-11-03T14:42:16.610Z,9.83
2022-11-03T14:44:45.960Z,10.60
2022-11-03T14:47:14.652Z,9.82
2022-11-03T14:49:41.857Z,9.87
2022-11-03T14:52:09.194Z,9.82
2022-11-03T14:54:36.663Z,9.27
2022-11-03T14:57:04.419Z,9.37
2022-11-03T14:59:31.777Z,9.32
2022-11-03T15:01:59.398Z,9.00
2022-11-03T15:04:26.983Z,8.60
2022-11-03T15:06:54.501Z,9.27
2022-11-03T15:09:21.654Z,9.48
2022-11-03T15:11:48.785Z,9.77
2022-11-03T15:14:15.877Z,9.60
2022-11-03T15:16:43.918Z,10.30
2022-11-03T15:19:10.997Z,10.13
2022-11-03T15:21:38.057Z,9.00
2022-11-03T15:26:52.286Z,9.82
2022-11-03T15:29:19.324Z,10.20
2022-11-03T15:31:48.250Z,10.30
2022-11-03T15:34:15.920Z,9.60
2022-11-03T15:36:43.090Z,9.43
2022-11-03T15:39:10.191Z,10.00
2022-11-03T15:41:37.316Z,9.40
2022-11-03T15:44:04.357Z,9.18
2022-11-03T15:46:31.414Z,9.05
2022-11-03T15:48:58.441Z,8.95
2022-11-03T15:51:25.876Z,9.20
2022-11-03T15:53:58.212Z,9.65
2022-11-03T15:56:26.740Z,9.93
2022-11-03T15:58:53.822Z,9.60
2022-11-03T16:01:21.422Z,9.27
2022-11-03T16:03:48.713Z,10.45
2022-11-03T16:06:15.778Z,9.80
2022-11-03T16:08:42.929Z,9.57
2022-11-03T16:11:09.998Z,9.30
2022-11-03T16:13:37.057Z,9.52
2022-11-03T16:16:04.290Z,9.73
2022-11-03T16:18:31.419Z,9.60
2022-11-03T16:20:58.448Z,9.60
2022-11-03T16:23:25.469Z,10.35
2022-11-03T16:25:52.590Z,10.10
2022-11-03T16:28:19.617Z,10.23
2022-11-03T16:30:51.254Z,10.13
2022-11-03T16:33:21.058Z,10.13
2022-11-03T16:35:48.173Z,11.13
2022-11-03T16:38:15.602Z,11.07
2022-11-03T16:40:42.952Z,11.40
2022-11-03T16:43:10.038Z,12.37
2022-11-03T16:45:38.138Z,12.05
2022-11-03T16:48:07.144Z,13.43
2022-11-03T16:50:34.505Z,14.73
2022-11-03T16:53:01.575Z,14.75
2022-11-03T16:55:28.658Z,16.85
2022-11-03T16:57:55.752Z,13.68
2022-11-03T17:00:23.951Z,12.83
2022-11-03T17:02:51.009Z,13.45
2022-11-03T17:05:19.825Z,13.15
2022-11-03T17:07:52.902Z,14.60
2022-11-03T17:10:20.913Z,14.27
2022-11-03T17:12:47.999Z,14.05
2022-11-03T17:15:15.216Z,13.57
2022-11-03T17:17:42.276Z,12.23
2022-11-03T17:20:10.800Z,13.20
2022-11-03T17:22:37.885Z,11.77
2022-11-03T17:25:05.533Z,12.85
2022-11-03T17:27:34.623Z,12.13
2022-11-03T17:30:04.769Z,11.40
2022-11-03T17:32:35.575Z,11.93
2022-11-03T17:35:02.777Z,12.95
2022-11-03T17:37:30.033Z,12.93
2022-11-03T17:39:57.224Z,14.20
2022-11-03T17:42:25.272Z,12.25
2022-11-03T17:44:53.528Z,12.52
2022-11-03T17:47:20.814Z,11.70
2022-11-03T17:49:48.708Z,12.15
2022-11-03T17:52:20.781Z,11.13
2022-11-03T17:54:50.780Z,11.40
2022-11-03T17:57:19.351Z,12.13
2022-11-03T17:59:48.652Z,12.00
2022-11-03T18:02:17.562Z,11.90
2022-11-03T18:04:44.973Z,13.50
2022-11-03T18:07:28.851Z,12.48
2022-11-03T18:09:56.183Z,13.10
2022-11-03T18:12:44.696Z,12.10
2022-11-03T18:15:15.647Z,12.80
2022-11-03T18:17:42.745Z,13.55
2022-11-03T18:20:14.524Z,13.60
2022-11-03T18:22:41.248Z,13.80
2022-11-03T18:25:23.720Z,13.55
2022-11-03T18:27:50.816Z,13.70
2022-11-03T18:30:18.007Z,12.68
2022-11-03T18:32:45.586Z,14.18
2022-11-03T18:35:16.488Z,13.45
2022-11-03T18:37:45.112Z,14.30
2022-11-03T18:40:13.108Z,14.93
2022-11-03T18:42:40.175Z,14.45
2022-11-03T18:45:23.487Z,14.15
2022-11-03T18:47:51.960Z,13.60
2022-11-03T18:50:19.435Z,14.45
2022-11-03T18:52:48.064Z,17.35
2022-11-03T18:55:16.303Z,16.67
2022-11-03T18:57:43.555Z,16.63
2022-11-03T19:00:17.630Z,15.15
2022-11-03T19:02:44.759Z,16.93
2022-11-03T19:05:13.994Z,15.45
2022-11-03T19:07:41.723Z,15.20
2022-11-03T19:10:10.359Z,15.65
2022-11-03T19:12:39.195Z,15.15
2022-11-03T19:15:07.336Z,18.13
2022-11-03T19:17:35.957Z,18.83
2022-11-03T19:20:11.744Z,19.52
2022-11-03T19:22:38.832Z,15.70
2022-11-03T19:25:06.127Z,16.35
2022-11-03T19:27:35.000Z,15.82
2022-11-03T19:30:03.642Z,16.35
2022-11-03T19:32:33.806Z,16.42
2022-11-03T19:35:02.881Z,16.42
2022-11-03T19:37:35.114Z,16.25
2022-11-03T19:40:05.841Z,15.80
2022-11-03T19:42:36.458Z,17.70
2022-11-03T19:45:05.901Z,15.02
2022-11-03T19:47:35.010Z,14.55
2022-11-03T19:50:02.967Z,14.10
2022-11-03T19:52:31.620Z,13.97
2022-11-03T19:55:01.228Z,14.13
2022-11-03T19:57:28.311Z,14.73
2022-11-03T19:59:58.817Z,17.73
2022-11-03T20:02:27.899Z,15.07
2022-11-03T20:04:55.328Z,15.43
2022-11-03T20:07:28.164Z,16.73
2022-11-03T20:09:58.331Z,18.65
2022-11-03T20:12:25.455Z,17.33
2022-11-03T20:14:52.503Z,16.75
2022-11-03T20:17:22.878Z,17.80
2022-11-03T20:19:50.146Z,17.00
2022-11-03T20:22:18.682Z,17.10
2022-11-03T20:24:46.572Z,15.18
2022-11-03T20:27:14.431Z,13.57
2022-11-03T20:29:41.704Z,12.93
2022-11-03T20:32:10.731Z,12.63
2022-11-03T20:34:37.783Z,17.02
2022-11-03T20:37:06.206Z,16.15
2022-11-03T20:39:33.282Z,14.63
2022-11-03T20:42:00.445Z,14.60
2022-11-03T20:44:27.510Z,14.32
2022-11-03T20:46:54.633Z,14.73
2022-11-03T20:49:21.757Z,13.55
2022-11-03T20:51:48.835Z,12.98
2022-11-03T20:54:18.347Z,12.82
2022-11-03T20:56:45.826Z,12.40
2022-11-03T21:01:46.203Z,15.33
2022-11-03T21:04:15.681Z,13.35
2022-11-03T21:06:43.163Z,12.13
2022-11-03T21:09:12.073Z,12.70
2022-11-03T21:11:40.513Z,16.55
2022-11-03T21:14:13.918Z,24.50
2022-11-03T21:17:01.078Z,23.80
2022-11-03T21:19:49.976Z,20.95
2022-11-03T21:22:38.244Z,17.30
2022-11-03T21:25:04.940Z,16.55
2022-11-03T21:27:31.994Z,17.70
2022-11-03T21:30:00.037Z,17.17
2022-11-03T21:32:27.493Z,17.63
2022-11-03T21:34:54.647Z,15.15
2022-11-03T21:37:21.682Z,14.38
2022-11-03T21:39:48.755Z,16.77
2022-11-03T21:42:35.983Z,16.80
2022-11-03T21:45:03.081Z,16.33
2022-11-03T21:47:30.122Z,14.57
2022-11-03T21:49:57.291Z,14.02
2022-11-03T21:52:32.178Z,13.60
2022-11-03T21:54:59.846Z,14.40
2022-11-03T21:57:27.247Z,13.90
2022-11-03T21:59:54.391Z,13.95
2022-11-03T22:02:21.492Z,13.25
2022-11-03T22:04:48.578Z,14.95
2022-11-03T22:07:15.670Z,17.83
2022-11-03T22:09:42.587Z,18.30
2022-11-03T22:12:10.183Z,15.07
2022-11-03T22:14:57.134Z,15.38
2022-11-03T22:17:24.183Z,13.15
2022-11-03T22:20:11.152Z,13.65
2022-11-03T22:22:58.102Z,13.65
2022-11-03T22:25:45.066Z,12.10
2022-11-03T22:28:14.924Z,12.23
2022-11-03T22:31:02.295Z,12.80
2022-11-03T22:33:29.335Z,13.73
2022-11-03T22:36:21.563Z,12.90
2022-11-03T22:39:08.835Z,12.32
2022-11-03T22:41:55.911Z,12.48
2022-11-03T22:44:42.870Z,12.67
2022-11-03T22:47:11.323Z,14.50
2022-11-03T22:49:41.794Z,14.57
2022-11-03T22:52:10.532Z,14.35
2022-11-03T22:54:37.560Z,14.40
2022-11-03T22:57:04.648Z,13.43
2022-11-03T22:59:31.914Z,11.68
2022-11-03T23:01:58.993Z,12.23
2022-11-03T23:04:26.130Z,12.57
2022-11-03T23:06:53.166Z,14.57
2022-11-03T23:09:20.288Z,13.93
2022-11-03T23:11:47.329Z,14.77
2022-11-03T23:14:14.751Z,13.80
2022-11-03T23:16:42.679Z,12.75
2022-11-03T23:19:31.223Z,12.63
2022-11-03T23:21:58.487Z,12.88
2022-11-03T23:24:45.774Z,13.57
2022-11-03T23:27:13.327Z,13.47
2022-11-03T23:29:40.737Z,12.98
2022-11-03T23:32:08.093Z,14.07
2022-11-03T23:34:35.520Z,14.27
2022-11-03T23:37:02.947Z,13.70
2022-11-03T23:39:30.037Z,14.52
2022-11-03T23:41:57.238Z,14.05
2022-11-03T23:44:24.271Z,13.50
2022-11-03T23:47:11.243Z,13.32
2022-11-03T23:49:38.274Z,13.80
2022-11-03T23:52:05.348Z,13.70
2022-11-03T23:54:32.547Z,14.23
2022-11-03T23:57:19.507Z,13.02
2022-11-03T23:59:46.562Z,13.55
